Time;durP1;ratioP1;P1;durP2;ratioP2;P2;SDS_P1;SDS_P2;PMS_P1;PMS_P2;Temp;Humidity;BMP_temperature;BMP_pressure;BME280_temperature;BME280_humidity;BME280_pressure;Samples;Min_cycle;Max_cycle;Signal;HPM_P1;HPM_P2
2024/01/20 00:01:21;;;;;;;26.57;15.00;;;;;;;1.26;59.59;101979.81;4955834;28;96688;-52
2024/01/20 00:03:47;;;;;;;25.07;14.73;;;;;;;1.23;59.61;101977.94;4953540;28;96810;-52
2024/01/20 00:06:12;;;;;;;23.90;14.80;;;;;;;1.21;59.47;101981.09;4954620;28;96741;-53
2024/01/20 00:08:38;;;;;;;20.53;13.60;;;;;;;1.20;59.31;101973.31;4953967;28;96766;-52
2024/01/20 00:11:03;;;;;;;24.50;15.50;;;;;;;1.20;59.70;101979.53;4954577;28;98810;-52
2024/01/20 00:13:29;;;;;;;26.87;15.77;;;;;;;1.18;59.46;101978.41;4954391;28;98405;-52
2024/01/20 00:15:54;;;;;;;24.00;15.90;;;;;;;1.14;59.55;101992.13;4956922;28;97202;-52
2024/01/20 00:18:19;;;;;;;28.33;16.13;;;;;;;1.15;59.49;101990.94;4951894;28;97747;-52
2024/01/20 00:20:46;;;;;;;23.60;15.17;;;;;;;1.12;59.61;101982.81;4954440;28;96777;-52
2024/01/20 00:23:12;;;;;;;24.23;14.83;;;;;;;1.10;59.58;101985.19;4954120;28;96958;-53
2024/01/20 00:25:37;;;;;;;24.63;15.10;;;;;;;1.09;59.54;101986.41;4953164;28;97254;-52
2024/01/20 00:28:03;;;;;;;24.47;16.37;;;;;;;1.09;59.73;101986.41;4952757;28;97054;-52
2024/01/20 00:30:29;;;;;;;22.30;15.47;;;;;;;1.13;59.79;101976.94;4953618;28;97636;-52
2024/01/20 00:32:54;;;;;;;24.50;14.73;;;;;;;1.14;59.91;101989.38;4953969;28;98374;-52
2024/01/20 00:35:20;;;;;;;27.43;17.13;;;;;;;1.14;59.63;101980.44;4955141;28;97012;-53
2024/01/20 00:37:45;;;;;;;22.27;14.83;;;;;;;1.14;59.57;101980.44;4952858;28;96829;-52
2024/01/20 00:40:11;;;;;;;28.23;16.03;;;;;;;1.14;59.53;101977.72;4956769;28;96873;-53
2024/01/20 00:42:37;;;;;;;24.77;15.30;;;;;;;1.11;59.83;101978.56;4955656;28;96810;-51
2024/01/20 00:45:06;;;;;;;23.47;14.90;;;;;;;1.15;59.85;101976.53;4955640;28;97426;-53
2024/01/20 00:47:31;;;;;;;29.40;16.67;;;;;;;1.17;59.80;101983.13;4954624;28;96718;-53
2024/01/20 00:49:57;;;;;;;27.70;15.90;;;;;;;1.12;59.91;101974.63;4956996;28;97447;-52
2024/01/20 00:52:22;;;;;;;27.33;17.17;;;;;;;1.12;59.99;101993.72;4954489;28;97262;-52
2024/01/20 00:54:48;;;;;;;24.70;16.03;;;;;;;1.10;59.92;101990.63;4954386;28;96788;-52
2024/01/20 00:57:13;;;;;;;24.60;15.73;;;;;;;1.11;60.19;101987.50;4954758;28;97230;-52
2024/01/20 00:59:38;;;;;;;24.27;14.90;;;;;;;1.13;59.76;101990.56;4952034;28;97357;-51
2024/01/20 01:02:04;;;;;;;32.40;16.80;;;;;;;1.15;59.87;102001.06;4952078;28;97291;-52
2024/01/20 01:04:29;;;;;;;22.33;14.70;;;;;;;1.16;59.92;101999.88;4951668;28;97086;-52
2024/01/20 01:06:54;;;;;;;23.67;14.43;;;;;;;1.15;59.94;102003.78;4954640;28;97215;-52
2024/01/20 01:09:20;;;;;;;23.00;14.23;;;;;;;1.16;59.96;102005.31;4952975;28;97264;-52
2024/01/20 01:11:46;;;;;;;29.37;16.90;;;;;;;1.15;59.86;102003.78;4952374;28;97044;-52
2024/01/20 01:14:12;;;;;;;25.83;15.70;;;;;;;1.14;59.88;102005.75;4956449;28;96747;-53
2024/01/20 01:16:37;;;;;;;21.50;14.70;;;;;;;1.14;60.15;102000.28;4957727;28;97396;-52
2024/01/20 01:19:03;;;;;;;29.00;17.43;;;;;;;1.12;60.13;101999.94;4953341;28;96828;-52
2024/01/20 01:21:28;;;;;;;24.50;15.77;;;;;;;1.13;60.09;102006.91;4954057;28;97102;-52
2024/01/20 01:23:53;;;;;;;23.40;16.07;;;;;;;1.13;60.08;102006.91;4955000;28;97204;-52
2024/01/20 01:26:19;;;;;;;23.43;14.60;;;;;;;1.13;59.99;102017.06;4957963;28;96832;-52
2024/01/20 01:28:45;;;;;;;28.77;16.77;;;;;;;1.10;59.96;102020.63;4955932;28;97325;-52
2024/01/20 01:31:10;;;;;;;26.17;16.17;;;;;;;1.11;60.07;102016.72;4954723;28;97890;-52
2024/01/20 01:33:36;;;;;;;27.90;15.50;;;;;;;1.12;60.18;102027.19;4954786;28;96921;-52
2024/01/20 01:36:02;;;;;;;23.87;14.57;;;;;;;1.11;59.95;102022.19;4954428;28;96978;-52
2024/01/20 01:38:27;;;;;;;26.87;17.13;;;;;;;1.09;60.15;102028.03;4955739;28;97125;-52
2024/01/20 01:40:52;;;;;;;26.43;15.50;;;;;;;1.13;60.21;102030.69;4954496;28;98007;-52
2024/01/20 01:43:18;;;;;;;25.00;15.17;;;;;;;1.14;59.94;102022.09;4955905;28;97441;-52
2024/01/20 01:45:43;;;;;;;29.37;16.07;;;;;;;1.14;60.17;102024.03;4954557;28;97011;-52
2024/01/20 01:48:08;;;;;;;30.43;17.77;;;;;;;1.13;60.25;102030.69;4951539;28;97225;-52
2024/01/20 01:50:34;;;;;;;28.20;16.37;;;;;;;1.16;60.39;102035.28;4952388;28;98672;-52
2024/01/20 01:53:00;;;;;;;25.80;15.40;;;;;;;1.18;60.21;102041.88;4953499;28;96769;-52
2024/01/20 01:55:26;;;;;;;25.77;15.60;;;;;;;1.21;60.31;102032.09;4953188;28;97226;-52
2024/01/20 01:57:55;;;;;;;24.80;14.73;;;;;;;1.20;60.28;102036.00;4955662;28;96926;-52
2024/01/20 02:00:20;;;;;;;25.27;14.90;;;;;;;1.22;60.22;102036.38;4956326;28;97635;-52
2024/01/20 02:02:46;;;;;;;26.27;15.00;;;;;;;1.26;60.42;102028.91;4954875;28;96785;-52
2024/01/20 02:05:11;;;;;;;31.60;17.60;;;;;;;1.27;60.13;102044.06;4952609;28;96875;-52
2024/01/20 02:07:38;;;;;;;27.63;16.10;;;;;;;1.24;60.31;102039.44;4954989;28;109330;-52
2024/01/20 02:10:06;;;;;;;26.97;16.07;;;;;;;1.22;60.34;102044.56;4952980;28;97192;-52
2024/01/20 02:12:33;;;;;;;29.33;16.87;;;;;;;1.24;60.28;102039.44;4956457;28;96797;-52
2024/01/20 02:14:59;;;;;;;32.37;17.13;;;;;;;1.25;60.28;102046.44;4952761;28;96886;-52
2024/01/20 02:17:24;;;;;;;29.03;16.57;;;;;;;1.24;60.16;102047.63;4953836;28;98112;-52
2024/01/20 02:19:50;;;;;;;29.00;16.23;;;;;;;1.24;60.02;102053.09;4951525;28;97051;-52
2024/01/20 02:22:16;;;;;;;28.07;15.70;;;;;;;1.26;60.35;102045.25;4956693;28;101882;-52
2024/01/20 02:24:47;;;;;;;26.83;17.27;;;;;;;1.28;60.01;102051.06;4952330;28;96690;-52
2024/01/20 02:27:13;;;;;;;31.40;16.80;;;;;;;1.28;60.22;102067.41;4954493;28;97410;-52
2024/01/20 02:29:39;;;;;;;28.80;16.40;;;;;;;1.29;60.42;102060.75;4952320;28;97168;-52
2024/01/20 02:32:05;;;;;;;29.70;16.47;;;;;;;1.29;60.51;102058.03;4956621;28;97026;-52
2024/01/20 02:34:31;;;;;;;30.33;17.20;;;;;;;1.28;60.45;102061.97;4955920;28;96998;-52
2024/01/20 02:36:56;;;;;;;27.47;16.53;;;;;;;1.27;60.45;102055.72;4954276;28;96644;-52
2024/01/20 02:39:21;;;;;;;27.17;16.03;;;;;;;1.29;60.33;102052.59;4953925;28;98008;-52
2024/01/20 02:41:47;;;;;;;25.00;15.53;;;;;;;1.29;60.41;102049.84;4954898;28;97097;-52
2024/01/20 02:44:13;;;;;;;27.70;16.73;;;;;;;1.35;60.23;102061.84;4951019;28;97018;-53
2024/01/20 02:46:38;;;;;;;28.20;15.90;;;;;;;1.35;60.26;102054.41;4952023;28;98721;-52
2024/01/20 02:49:04;;;;;;;24.90;15.13;;;;;;;1.36;60.25;102064.13;4952425;28;97360;-52
2024/01/20 02:51:29;;;;;;;30.67;15.87;;;;;;;1.38;60.21;102063.72;4956302;28;97162;-52
2024/01/20 02:53:55;;;;;;;27.13;15.97;;;;;;;1.38;60.26;102064.47;4951570;28;97177;-53
2024/01/20 02:56:22;;;;;;;24.23;15.67;;;;;;;1.40;60.38;102064.06;4951503;28;97090;-52
2024/01/20 02:58:48;;;;;;;24.93;14.83;;;;;;;1.40;60.34;102073.00;4952798;28;97241;-52
2024/01/20 03:01:14;;;;;;;30.93;16.07;;;;;;;1.42;60.34;102072.59;4953273;28;96776;-52
2024/01/20 03:03:40;;;;;;;30.90;17.47;;;;;;;1.40;60.44;102066.78;4955268;28;97381;-52
2024/01/20 03:06:05;;;;;;;23.87;14.67;;;;;;;1.39;60.05;102074.19;4953405;28;96736;-52
2024/01/20 03:08:30;;;;;;;26.00;15.63;;;;;;;1.36;60.15;102066.09;4953817;28;98489;-53
2024/01/20 03:10:56;;;;;;;25.13;15.67;;;;;;;1.38;60.48;102069.94;4949038;28;102542;-52
2024/01/20 03:13:21;;;;;;;26.83;15.57;;;;;;;1.37;60.25;102073.09;4949839;28;96775;-52
2024/01/20 03:15:46;;;;;;;29.53;16.40;;;;;;;1.37;60.23;102071.13;4946557;28;96984;-52
2024/01/20 03:18:12;;;;;;;28.23;16.03;;;;;;;1.36;60.38;102066.88;4953878;28;97266;-52
2024/01/20 03:20:37;;;;;;;29.03;15.80;;;;;;;1.29;60.46;102067.00;4954303;28;96831;-52
2024/01/20 03:23:02;;;;;;;26.60;14.57;;;;;;;1.30;60.32;102062.31;4951215;28;96858;-53
2024/01/20 03:25:28;;;;;;;25.93;14.43;;;;;;;1.29;60.59;102064.25;4950959;28;97009;-52
2024/01/20 03:27:53;;;;;;;24.03;15.30;;;;;;;1.31;60.01;102072.78;4951799;28;110498;-52
2024/01/20 03:30:19;;;;;;;27.10;14.53;;;;;;;1.32;59.94;102070.84;4951983;28;96789;-52
2024/01/20 03:32:44;;;;;;;27.40;15.87;;;;;;;1.32;60.33;102070.84;4950616;28;97210;-52
2024/01/20 03:35:09;;;;;;;25.50;14.70;;;;;;;1.32;60.21;102074.34;4953569;28;96978;-52
2024/01/20 03:37:35;;;;;;;24.00;14.30;;;;;;;1.31;60.31;102077.47;4953173;28;104536;-52
2024/01/20 03:40:01;;;;;;;25.17;14.27;;;;;;;1.27;60.25;102072.09;4955286;28;96677;-52
2024/01/20 03:42:28;;;;;;;26.80;14.43;;;;;;;1.27;60.34;102072.09;4951105;28;96701;-52
2024/01/20 03:44:54;;;;;;;30.30;14.13;;;;;;;1.29;60.59;102075.16;4953398;28;96831;-52
2024/01/20 03:47:19;;;;;;;24.80;14.67;;;;;;;1.29;60.22;102088.78;4956556;28;97585;-52
2024/01/20 03:49:44;;;;;;;29.00;14.73;;;;;;;1.27;60.44;102079.50;4955223;28;96744;-52
2024/01/20 03:52:10;;;;;;;25.60;14.37;;;;;;;1.27;60.30;102087.66;4953653;28;98113;-52
2024/01/20 03:54:35;;;;;;;27.13;15.23;;;;;;;1.26;60.46;102080.69;4948186;28;101327;-52
2024/01/20 03:57:00;;;;;;;28.53;15.80;;;;;;;1.25;60.34;102084.59;4953163;28;98129;-52
2024/01/20 03:59:26;;;;;;;24.73;14.83;;;;;;;1.19;60.47;102089.78;4954471;28;105549;-52
2024/01/20 04:01:51;;;;;;;26.37;15.13;;;;;;;1.19;60.39;102075.38;4957075;28;98311;-52
2024/01/20 04:04:16;;;;;;;26.17;14.90;;;;;;;1.16;60.19;102084.38;4955161;28;96726;-52
2024/01/20 04:06:42;;;;;;;28.07;14.63;;;;;;;1.10;60.35;102091.47;4955981;28;97559;-52
2024/01/20 04:09:07;;;;;;;26.00;15.37;;;;;;;1.04;60.45;102100.13;4953687;28;96967;-53
2024/01/20 04:11:32;;;;;;;34.57;15.30;;;;;;;1.03;60.24;102106.00;4954135;28;97730;-52
2024/01/20 04:13:58;;;;;;;27.70;14.20;;;;;;;1.03;60.25;102106.00;4953236;28;97012;-52
2024/01/20 04:16:23;;;;;;;22.90;13.37;;;;;;;0.98;60.47;102115.41;4958394;28;105456;-52
2024/01/20 04:18:48;;;;;;;32.17;16.00;;;;;;;0.96;60.50;102117.78;4956611;28;97216;-52
2024/01/20 04:21:13;;;;;;;28.80;14.17;;;;;;;0.96;60.60;102112.34;4954020;28;96890;-52
2024/01/20 04:23:39;;;;;;;23.60;13.50;;;;;;;0.96;60.54;102112.34;4952098;28;101878;-52
2024/01/20 04:26:04;;;;;;;28.70;15.10;;;;;;;0.95;60.20;102116.25;4952217;28;108242;-52
2024/01/20 04:28:30;;;;;;;28.10;14.67;;;;;;;0.92;60.64;102125.25;4952575;28;96932;-52
2024/01/20 04:30:55;;;;;;;29.80;14.90;;;;;;;0.90;60.46;102135.78;4952639;28;97238;-52
2024/01/20 04:33:20;;;;;;;30.97;14.40;;;;;;;0.90;60.43;102132.28;4955010;28;96809;-52
2024/01/20 04:35:45;;;;;;;26.63;15.30;;;;;;;0.89;60.54;102136.22;4955810;28;102700;-52
2024/01/20 04:38:11;;;;;;;28.73;14.80;;;;;;;0.87;60.48;102144.78;4951938;28;97161;-51
2024/01/20 04:40:36;;;;;;;36.60;16.23;;;;;;;0.86;60.82;102142.47;4954891;28;96850;-52
2024/01/20 04:43:02;;;;;;;24.43;13.67;;;;;;;0.83;60.47;102146.78;4955671;28;96983;-52
2024/01/20 04:45:28;;;;;;;30.13;15.40;;;;;;;0.82;60.54;102139.81;4953301;28;97186;-51
2024/01/20 04:47:53;;;;;;;34.63;15.90;;;;;;;0.80;60.76;102141.41;4956893;28;97133;-52
2024/01/20 04:50:18;;;;;;;33.23;15.80;;;;;;;0.81;60.52;102141.00;4956583;28;96970;-52
2024/01/20 04:52:44;;;;;;;32.03;15.10;;;;;;;0.79;60.83;102142.59;4957292;28;97188;-52
2024/01/20 04:55:09;;;;;;;31.57;15.40;;;;;;;0.79;60.83;102151.53;4956666;28;97116;-52
2024/01/20 04:57:35;;;;;;;28.33;14.27;;;;;;;0.77;60.86;102164.78;4955674;28;97842;-52
2024/01/20 05:00:00;;;;;;;28.07;16.00;;;;;;;0.80;60.62;102157.75;4951716;28;97061;-51
2024/01/20 05:02:26;;;;;;;31.07;15.90;;;;;;;0.78;60.79;102155.44;4954101;28;104061;-52
2024/01/20 05:04:51;;;;;;;25.20;14.40;;;;;;;0.80;60.73;102163.94;4953773;28;97089;-52
2024/01/20 05:07:16;;;;;;;29.60;15.90;;;;;;;0.76;60.67;102157.78;4956102;28;97141;-52
2024/01/20 05:09:42;;;;;;;36.83;15.47;;;;;;;0.74;60.76;102164.84;4952591;28;97166;-51
2024/01/20 05:12:07;;;;;;;31.90;15.67;;;;;;;0.73;60.59;102153.19;4949910;28;101498;-51
2024/01/20 05:14:32;;;;;;;28.87;15.30;;;;;;;0.71;60.58;102160.22;4956366;28;96678;-51
2024/01/20 05:16:58;;;;;;;29.03;14.90;;;;;;;0.67;60.76;102160.25;4950034;28;97111;-51
2024/01/20 05:19:23;;;;;;;30.73;15.80;;;;;;;0.65;60.80;102153.72;4954367;28;96954;-52
2024/01/20 05:21:48;;;;;;;29.83;15.83;;;;;;;0.64;60.64;102163.03;4952410;28;107756;-52
2024/01/20 05:24:14;;;;;;;34.53;16.10;;;;;;;0.64;60.67;102169.28;4957082;28;97285;-52
2024/01/20 05:26:39;;;;;;;26.93;14.80;;;;;;;0.61;60.63;102169.31;4952790;28;97482;-51
2024/01/20 05:29:05;;;;;;;28.33;15.53;;;;;;;0.60;60.76;102167.78;4950124;28;97169;-51
2024/01/20 05:31:31;;;;;;;28.67;15.70;;;;;;;0.57;60.83;102180.25;4954634;28;97273;-51
2024/01/20 05:34:00;;;;;;;29.50;16.20;;;;;;;0.59;60.88;102179.84;4955337;28;97190;-52
2024/01/20 05:36:25;;;;;;;34.47;16.47;;;;;;;0.58;60.88;102175.59;4951888;28;97166;-51
2024/01/20 05:38:51;;;;;;;29.77;15.47;;;;;;;0.55;60.69;102184.56;4954432;28;96607;-51
2024/01/20 05:41:16;;;;;;;29.40;15.63;;;;;;;0.53;60.93;102179.53;4952681;28;98623;-51
2024/01/20 05:43:41;;;;;;;26.53;15.00;;;;;;;0.52;60.95;102180.69;4952479;28;107850;-52
2024/01/20 05:46:07;;;;;;;32.27;16.70;;;;;;;0.52;61.00;102186.16;4949561;28;97095;-51
2024/01/20 05:48:34;;;;;;;25.10;13.97;;;;;;;0.52;60.92;102175.25;4954854;28;99741;-52
2024/01/20 05:50:59;;;;;;;25.70;13.73;;;;;;;0.54;60.86;102196.66;4956538;28;97292;-52
2024/01/20 05:53:24;;;;;;;32.60;15.03;;;;;;;0.52;61.02;102188.13;4956169;28;99117;-51
2024/01/20 05:55:50;;;;;;;28.20;14.70;;;;;;;0.52;60.96;102193.56;4954293;28;101339;-51
2024/01/20 05:58:15;;;;;;;26.90;15.20;;;;;;;0.51;60.83;102200.19;4954897;28;97012;-51
2024/01/20 06:00:40;;;;;;;29.47;15.40;;;;;;;0.49;60.74;102197.88;4955773;28;96959;-51
2024/01/20 06:03:06;;;;;;;26.30;14.33;;;;;;;0.46;61.12;102204.13;4957110;28;96750;-52
2024/01/20 06:05:31;;;;;;;26.70;14.63;;;;;;;0.45;60.68;102194.44;4954541;28;97055;-51
2024/01/20 06:07:57;;;;;;;23.73;14.20;;;;;;;0.44;60.76;102206.50;4952462;28;96804;-51
2024/01/20 06:10:22;;;;;;;27.27;15.00;;;;;;;0.45;60.84;102204.53;4952910;28;97403;-51
2024/01/20 06:12:48;;;;;;;29.60;14.80;;;;;;;0.43;60.90;102207.69;4957809;28;97158;-51
2024/01/20 06:15:13;;;;;;;23.87;14.03;;;;;;;0.42;61.01;102203.41;4955364;28;96798;-51
2024/01/20 06:17:38;;;;;;;30.23;15.73;;;;;;;0.41;61.05;102199.13;4952834;28;96896;-51
2024/01/20 06:20:05;;;;;;;27.23;14.90;;;;;;;0.42;60.88;102200.69;4950322;28;102578;-52
2024/01/20 06:22:30;;;;;;;26.53;14.77;;;;;;;0.40;61.05;102200.31;4952659;28;98209;-51
2024/01/20 06:24:56;;;;;;;25.60;15.47;;;;;;;0.37;61.05;102198.41;4953958;28;96730;-52
2024/01/20 06:27:21;;;;;;;32.80;15.80;;;;;;;0.33;61.12;102200.41;4955982;28;97122;-51
2024/01/20 06:29:46;;;;;;;27.67;15.00;;;;;;;0.34;61.17;102204.69;4955403;28;97000;-52
2024/01/20 06:32:12;;;;;;;24.97;14.23;;;;;;;0.33;61.01;102211.28;4951761;28;96829;-51
2024/01/20 06:34:37;;;;;;;26.80;14.67;;;;;;;0.29;61.14;102216.00;4956153;28;97425;-51
2024/01/20 06:37:02;;;;;;;30.30;14.70;;;;;;;0.32;61.07;102214.44;4955045;28;103534;-51
2024/01/20 06:39:28;;;;;;;23.27;13.73;;;;;;;0.31;60.96;102213.66;4953540;28;98266;-51
2024/01/20 06:41:53;;;;;;;26.20;14.80;;;;;;;0.31;61.21;102216.38;4954202;28;112197;-51
2024/01/20 06:44:21;;;;;;;27.23;14.70;;;;;;;0.26;61.05;102223.03;4953045;28;104192;-51
2024/01/20 06:46:47;;;;;;;26.03;14.50;;;;;;;0.25;61.15;102218.78;4957073;28;97297;-51
2024/01/20 06:49:12;;;;;;;24.97;14.27;;;;;;;0.22;61.03;102221.53;4949561;28;97605;-51
2024/01/20 06:51:37;;;;;;;25.50;13.53;;;;;;;0.22;61.29;102226.97;4953310;28;96657;-51
2024/01/20 06:54:03;;;;;;;26.47;14.50;;;;;;;0.20;61.07;102218.44;4954724;28;97399;-51
2024/01/20 06:56:28;;;;;;;24.57;13.80;;;;;;;0.18;61.19;102226.25;4954858;28;97216;-51
2024/01/20 06:58:55;;;;;;;30.27;15.23;;;;;;;0.17;61.28;102230.13;4955702;28;97771;-51
2024/01/20 07:01:20;;;;;;;28.10;15.00;;;;;;;0.17;61.13;102228.19;4953095;28;98489;-51
2024/01/20 07:03:46;;;;;;;25.50;15.40;;;;;;;0.16;60.97;102229.38;4957364;28;97208;-51
2024/01/20 07:06:12;;;;;;;26.30;14.70;;;;;;;0.16;61.23;102239.50;4955002;28;97152;-51
2024/01/20 07:08:38;;;;;;;25.80;14.13;;;;;;;0.16;61.18;102234.84;4956528;28;97789;-51
2024/01/20 07:11:07;;;;;;;28.13;14.57;;;;;;;0.16;61.09;102244.94;4956854;28;98337;-51
2024/01/20 07:13:33;;;;;;;25.00;14.17;;;;;;;0.13;60.92;102241.06;4954992;28;96904;-51
2024/01/20 07:15:58;;;;;;;27.70;14.90;;;;;;;0.09;61.15;102251.22;4951965;28;103355;-51
2024/01/20 07:18:23;;;;;;;26.90;15.20;;;;;;;0.07;61.11;102244.63;4954082;28;106367;-51
2024/01/20 07:20:49;;;;;;;25.43;14.57;;;;;;;0.09;61.24;102242.28;4954609;28;105788;-51
2024/01/20 07:23:14;;;;;;;30.23;15.50;;;;;;;0.08;61.20;102248.91;4952533;28;100057;-51
2024/01/20 07:25:39;;;;;;;27.00;15.10;;;;;;;0.08;61.38;102254.38;4952743;28;97012;-51
2024/01/20 07:28:05;;;;;;;25.87;14.17;;;;;;;0.08;61.26;102254.38;4954329;28;98378;-51
2024/01/20 07:30:30;;;;;;;26.53;13.83;;;;;;;0.10;61.30;102260.91;4952606;28;98251;-51
2024/01/20 07:32:58;;;;;;;26.40;14.17;;;;;;;0.09;61.17;102264.84;4955472;28;96950;-50
2024/01/20 07:35:24;;;;;;;30.27;13.97;;;;;;;0.12;61.06;102260.53;4952263;28;96602;-51
2024/01/20 07:37:49;;;;;;;27.37;13.90;;;;;;;0.11;61.17;102253.53;4956078;28;97034;-51
2024/01/20 07:40:15;;;;;;;28.10;14.90;;;;;;;0.09;61.17;102261.34;4956313;28;97289;-51
2024/01/20 07:42:40;;;;;;;26.40;14.33;;;;;;;0.09;61.15;102267.56;4957073;28;97210;-51
2024/01/20 07:45:06;;;;;;;23.13;13.70;;;;;;;0.11;61.07;102270.63;4957613;28;96799;-50
2024/01/20 07:47:31;;;;;;;24.67;14.37;;;;;;;0.12;61.17;102266.75;4956557;28;98664;-51
2024/01/20 07:49:57;;;;;;;26.33;14.00;;;;;;;0.11;61.26;102272.59;4957216;28;99799;-51
2024/01/20 07:52:22;;;;;;;25.07;13.63;;;;;;;0.09;61.23;102272.22;4960515;28;97331;-51
2024/01/20 07:54:47;;;;;;;31.50;15.00;;;;;;;0.08;61.16;102281.56;4954029;28;101368;-51
2024/01/20 07:57:13;;;;;;;28.03;13.80;;;;;;;0.09;61.38;102274.94;4955117;28;109226;-50
2024/01/20 07:59:38;;;;;;;27.53;15.30;;;;;;;0.11;61.24;102281.53;4958407;28;107118;-53
2024/01/20 08:02:04;;;;;;;26.17;14.50;;;;;;;0.14;61.07;102285.38;4956023;28;97132;-50
2024/01/20 08:04:29;;;;;;;23.70;14.00;;;;;;;0.15;61.11;102293.16;4953501;28;96840;-51
2024/01/20 08:06:54;;;;;;;27.53;14.50;;;;;;;0.16;61.25;102300.16;4953778;28;100065;-50
2024/01/20 08:09:20;;;;;;;28.13;15.17;;;;;;;0.16;61.05;102297.41;4955229;28;96787;-51
2024/01/20 08:11:45;;;;;;;23.87;14.23;;;;;;;0.14;61.20;102302.50;4954431;28;97298;-51
2024/01/20 08:14:10;;;;;;;24.87;14.20;;;;;;;0.16;61.09;102302.88;4955364;28;97316;-50
2024/01/20 08:16:36;;;;;;;26.07;14.70;;;;;;;0.18;60.99;102308.66;4956336;28;97363;-51
2024/01/20 08:19:01;;;;;;;29.70;16.40;;;;;;;0.20;61.06;102313.69;4956493;28;97286;-50
2024/01/20 08:21:26;;;;;;;26.03;13.80;;;;;;;0.20;61.07;102311.75;4955060;28;96699;-51
2024/01/20 08:23:52;;;;;;;26.73;13.10;;;;;;;0.22;61.47;102311.34;4954539;28;96590;-51
2024/01/20 08:26:17;;;;;;;27.77;14.50;;;;;;;0.25;61.31;102314.06;4956550;28;97057;-50
2024/01/20 08:28:42;;;;;;;32.63;15.03;;;;;;;0.29;61.41;102311.28;4955908;28;96720;-51
2024/01/20 08:31:08;;;;;;;29.17;15.87;;;;;;;0.32;61.05;102307.75;4955072;28;96624;-51
2024/01/20 08:33:33;;;;;;;22.43;13.43;;;;;;;0.34;60.97;102310.06;4954379;28;97017;-50
2024/01/20 08:35:58;;;;;;;25.90;15.03;;;;;;;0.38;61.11;102319.75;4956724;28;97208;-51
2024/01/20 08:38:24;;;;;;;27.30;14.77;;;;;;;0.42;61.17;102319.69;4957934;28;97354;-51
2024/01/20 08:40:49;;;;;;;28.47;15.07;;;;;;;0.42;61.18;102316.97;4953290;28;96639;-53
2024/01/20 08:43:18;;;;;;;31.60;14.73;;;;;;;0.46;61.26;102323.16;4956580;28;97209;-51
2024/01/20 08:45:43;;;;;;;24.63;13.80;;;;;;;0.48;61.15;102324.28;4959136;28;97745;-51
2024/01/20 08:48:09;;;;;;;26.37;13.77;;;;;;;0.51;61.08;102337.09;4953872;28;100263;-50
2024/01/20 08:50:34;;;;;;;28.67;14.93;;;;;;;0.52;60.73;102338.63;4954971;28;97100;-51
2024/01/20 08:53:00;;;;;;;27.63;13.70;;;;;;;0.53;60.99;102339.41;4953588;28;97008;-51
2024/01/20 08:55:25;;;;;;;26.13;13.47;;;;;;;0.55;61.11;102345.22;4954349;28;97765;-50
2024/01/20 08:57:50;;;;;;;28.73;13.77;;;;;;;0.58;60.88;102345.22;4955161;28;96930;-50
2024/01/20 09:00:16;;;;;;;24.07;13.50;;;;;;;0.61;61.16;102352.53;4955323;28;97057;-50
2024/01/20 09:02:43;;;;;;;23.93;13.70;;;;;;;0.63;60.89;102355.63;4953441;28;97471;-50
2024/01/20 09:05:10;;;;;;;36.20;15.60;;;;;;;0.65;60.85;102358.72;4958247;28;97270;-51
2024/01/20 09:07:35;;;;;;;24.47;13.10;;;;;;;0.69;60.93;102354.03;4949535;28;96917;-50
2024/01/20 09:10:03;;;;;;;24.67;12.03;;;;;;;0.72;60.78;102350.47;4954557;28;97024;-51
2024/01/20 09:12:28;;;;;;;33.97;14.10;;;;;;;0.75;61.02;102357.84;4953513;28;96856;-51
2024/01/20 09:14:55;;;;;;;25.63;13.73;;;;;;;0.77;60.80;102358.22;4960563;28;110106;-50
2024/01/20 09:17:20;;;;;;;24.70;13.57;;;;;;;0.80;61.18;102357.38;4953225;28;98480;-51
2024/01/20 09:19:45;;;;;;;24.80;14.10;;;;;;;0.80;60.77;102362.84;4952387;28;97141;-51
2024/01/20 09:22:10;;;;;;;25.47;13.67;;;;;;;0.82;60.81;102368.66;4960908;28;98870;-51
2024/01/20 09:24:36;;;;;;;26.40;12.40;;;;;;;0.88;60.93;102372.47;4951481;28;101227;-51
2024/01/20 09:27:02;;;;;;;22.57;12.53;;;;;;;0.94;60.92;102367.34;4956841;28;97458;-53
2024/01/20 09:29:28;;;;;;;23.60;13.70;;;;;;;0.99;60.85;102383.25;4951535;28;97070;-50
2024/01/20 09:31:54;;;;;;;20.03;11.40;;;;;;;1.01;61.06;102384.41;4957844;28;96885;-51
2024/01/20 09:34:19;;;;;;;26.07;13.70;;;;;;;1.05;60.67;102387.84;4953172;28;97378;-51
2024/01/20 09:36:45;;;;;;;28.23;13.47;;;;;;;1.09;60.96;102384.31;4955232;28;97157;-50
2024/01/20 09:39:12;;;;;;;20.20;12.30;;;;;;;1.11;60.92;102384.69;4947910;28;97346;-50
2024/01/20 09:41:39;;;;;;;24.83;13.77;;;;;;;1.15;60.72;102391.63;4955438;28;97377;-51
2024/01/20 09:44:06;;;;;;;24.27;13.80;;;;;;;1.16;60.81;102398.63;4951220;28;98911;-53
2024/01/20 09:46:32;;;;;;;27.60;13.10;;;;;;;1.21;60.34;102397.38;4952788;28;97174;-53
2024/01/20 09:48:59;;;;;;;24.23;13.33;;;;;;;1.23;60.51;102397.75;4955811;28;96945;-51
2024/01/20 09:51:28;;;;;;;20.73;12.27;;;;;;;1.32;60.33;102395.31;4952600;28;97084;-51
2024/01/20 09:53:58;;;;;;;28.37;13.87;;;;;;;1.38;60.54;102399.09;4955844;28;97195;-51
2024/01/20 09:56:23;;;;;;;24.60;13.27;;;;;;;1.43;60.66;102385.03;4952004;28;97155;-51
2024/01/20 09:58:50;;;;;;;25.53;14.17;;;;;;;1.48;60.44;102377.13;4952578;28;97175;-51
2024/01/20 10:01:16;;;;;;;25.13;11.97;;;;;;;1.50;60.66;102379.47;4954180;28;96971;-51
2024/01/20 10:03:43;;;;;;;24.43;13.57;;;;;;;1.52;60.16;102380.59;4952654;28;97966;-51
2024/01/20 10:06:08;;;;;;;25.90;13.47;;;;;;;1.53;60.51;102379.41;4953786;28;97217;-52
2024/01/20 10:08:34;;;;;;;31.70;12.97;;;;;;;1.59;60.04;102382.44;4955385;28;99163;-51
2024/01/20 10:11:06;;;;;;;24.43;13.63;;;;;;;1.65;60.09;102378.84;4954493;28;96833;-51
2024/01/20 10:13:31;;;;;;;23.63;12.67;;;;;;;1.71;60.26;102390.06;4950102;28;97429;-51
2024/01/20 10:15:57;;;;;;;20.80;12.00;;;;;;;1.76;60.40;102392.34;4953927;28;98218;-52
2024/01/20 10:18:22;;;;;;;26.93;12.57;;;;;;;1.78;60.53;102396.19;4951684;28;97121;-51
2024/01/20 10:20:48;;;;;;;21.30;11.47;;;;;;;1.80;60.16;102407.47;4953051;28;98390;-51
2024/01/20 10:23:13;;;;;;;21.93;11.23;;;;;;;1.86;60.54;102402.31;4950673;28;106602;-51
2024/01/20 10:25:38;;;;;;;20.33;11.30;;;;;;;1.93;60.12;102406.88;4954457;28;97149;-51
2024/01/20 10:28:07;;;;;;;18.83;11.10;;;;;;;2.00;59.96;102402.09;4952003;28;96744;-51
2024/01/20 10:30:32;;;;;;;17.23;10.50;;;;;;;2.02;59.78;102394.25;4955888;28;97422;-51
2024/01/20 10:33:00;;;;;;;22.77;11.00;;;;;;;2.04;59.88;102396.56;4951818;28;97370;-51
2024/01/20 10:35:26;;;;;;;18.67;11.60;;;;;;;2.12;59.72;102400.72;4952819;28;97074;-51
2024/01/20 10:37:59;;;;;;;20.80;12.03;;;;;;;2.16;59.87;102394.00;4950113;28;96894;-51
2024/01/20 10:40:25;;;;;;;23.93;10.80;;;;;;;2.20;59.92;102399.44;4951097;28;97154;-51
2024/01/20 10:43:03;;;;;;;24.13;11.77;;;;;;;2.24;59.64;102390.00;4951530;28;97855;-51
2024/01/20 10:45:39;;;;;;;15.87;9.63;;;;;;;2.28;59.87;102398.91;4952608;28;97039;-51
2024/01/20 10:48:14;;;;;;;18.97;11.30;;;;;;;2.31;59.87;102398.03;4950249;28;97130;-52
2024/01/20 10:50:47;;;;;;;20.13;11.80;;;;;;;2.36;59.93;102399.56;4950736;28;97398;-51
2024/01/20 10:53:13;;;;;;;19.43;10.33;;;;;;;2.39;59.60;102404.97;4948975;28;97689;-51
2024/01/20 10:55:40;;;;;;;18.97;10.50;;;;;;;2.43;59.64;102402.16;4952485;28;97194;-51
2024/01/20 10:58:08;;;;;;;18.77;10.20;;;;;;;2.45;59.62;102397.84;4952550;28;97139;-51
2024/01/20 11:00:36;;;;;;;18.33;10.57;;;;;;;2.48;59.91;102410.66;4953094;28;96882;-52
2024/01/20 11:03:03;;;;;;;18.40;10.50;;;;;;;2.49;59.72;102411.44;4949716;28;97398;-52
2024/01/20 11:05:28;;;;;;;19.20;11.10;;;;;;;2.51;59.48;102406.31;4950612;28;97242;-51
2024/01/20 11:08:04;;;;;;;19.00;11.27;;;;;;;2.55;59.31;102410.53;4954402;28;97111;-52
2024/01/20 11:10:29;;;;;;;23.50;10.70;;;;;;;2.55;59.57;102413.25;4958010;28;97152;-51